x

8454049 - Quonset Point, Ri (qptr1) Weather Station

1:54am - Sun 28th Dec 2014 All times are EST. -5 hours from GMT.

  • Wind
    11mph, 15mph gusts
  • Sea Temp 44°f
  • 空気 Temp 44°f
  • Sea Pressure 1015.6mb
  • 8454049 - Quonset Point, Ri
  • 8454049 - Quonset Point, Ri

More Historic Weather Station data

Upgrade to MSW Pro to gain access to the past 30 days of data for over 8000 Wavebouys and Weather Stations around the globe.

Join Pro

Comparision Forecast

View Surf forecast
   
Sun 12/28 1:54am 11 15 mph 1015.6mb 44f 44f
1:48am 14 15 mph - - -
1:42am 14 16 mph 1016mb 44f 44f
1:36am 13 14 mph 1015.8mb 44f 44f
1:30am 9 11 mph 1015.8mb 44f 44f
1:24am 9 11 mph 1016mb 44f 44f
1:18am 9 10 mph 1016.1mb 44f 44f
1:12am 10 13 mph 1016mb 44f 44f
1:06am 10 11 mph 1016.3mb 44f 44f
1:00am 9 10 mph 1016.4mb 44f 43f
12:54am 8 9 mph 1016.7mb 44f 43f
12:48am 9 10 mph 1016.8mb 44f 43f
12:42am 7 9 mph 1016.9mb 44f 43f
12:36am 8 10 mph 1017.1mb 44f 43f
12:30am 8 9 mph 1017.2mb 44f 43f
12:24am 8
mph
1017.2mb 44f 43f
12:18am 7 9 mph 1017.4mb 44f 43f
12:12am 8 10 mph 1017.6mb 44f 43f
12:06am 9 10 mph 1017.7mb 44f 43f
12:00am 8 9 mph 1017.9mb 44f 43f
Sat 12/27 11:54pm 8 9 mph 1018mb 44f 43f
11:48pm  -  mph - - 43f
11:42pm  -  mph - - 43f
11:36pm  -  mph - - 43f
11:30pm 7
mph
1018.4mb 44f 43f
11:24pm 6 8 mph 1018.5mb 44f 43f
11:18pm 7 8 mph 1018.6mb 44f 43f
11:12pm 7 8 mph 1018.5mb 44f 43f
11:06pm 7 9 mph 1018.6mb 44f 43f
11:00pm 7 10 mph 1018.7mb 44f 43f
10:54pm 8
mph
1019mb 44f 43f
10:48pm 6 7 mph 1018.9mb 44f 43f
10:42pm 5 6 mph 1019mb 44f 42f
10:36pm 6
mph
1019.2mb 44f 42f
10:30pm 6
mph
1019.3mb 44f 42f
10:24pm 6 7 mph 1019.5mb 44f 42f
10:18pm 7 8 mph 1019.6mb 44f 42f
10:12pm 8 9 mph 1019.6mb 44f 43f
10:06pm 7 9 mph 1019.6mb 44f 43f
10:00pm 8 9 mph 1019.7mb 44f 43f
9:54pm 8 9 mph 1019.6mb 44f 43f
9:48pm 8 9 mph 1019.9mb 44f 43f
9:42pm 8 9 mph 1020mb 44f 43f
9:36pm 8 9 mph 1020mb 44f 43f
9:30pm 7 8 mph 1020.1mb 44f 43f
9:24pm 7
mph
1020.1mb 44f 43f
9:18pm 7 8 mph 1020mb 44f 43f
9:12pm 6 7 mph 1019.9mb 44f 43f
9:06pm 6 7 mph 1019.9mb 44f 43f
9:00pm 7 8 mph 1020.2mb 44f 43f
8:54pm 7 8 mph 1020.1mb 44f 43f
8:48pm 7 8 mph 1020.2mb 44f 43f
8:42pm 7 8 mph 1020.3mb 44f 43f
8:36pm 8 9 mph 1020.5mb 44f 43f
8:30pm 8
mph
1020.5mb 44f 43f
8:24pm 7 8 mph 1020.4mb 44f 43f
8:18pm 7 8 mph 1020.5mb 44f 43f
8:12pm 7
mph
1020.5mb 44f 44f
8:06pm 7 8 mph 1020.5mb 44f 44f
8:00pm 7 8 mph 1020.6mb 44f 44f
7:54pm 7 8 mph 1020.9mb 44f 44f
7:48pm 7 8 mph 1020.7mb 44f 44f
7:42pm 8 9 mph 1020.6mb 44f 44f
7:36pm 7 8 mph 1020.7mb 44f 44f
7:30pm 7 8 mph 1020.6mb 44f 44f
7:24pm 8 10 mph 1020.6mb 44f 44f
7:18pm 7 9 mph 1020.7mb 44f 44f
7:12pm 8 9 mph 1020.7mb 44f 45f
7:06pm 8 9 mph 1020.8mb 44f 45f
7:00pm 8 9 mph 1020.8mb 44f 45f
6:54pm 9 10 mph 1020.8mb 44f 45f
6:48pm 10 11 mph 1020.8mb 44f 45f
6:42pm 10 11 mph 1020.7mb 44f 45f
6:36pm 10 11 mph 1020.8mb 44f 45f
6:30pm 10 11 mph 1020.8mb 44f 46f
6:24pm 10
mph
1020.8mb 44f 46f
6:18pm 9 11 mph 1021mb 44f 46f
6:12pm 10 11 mph 1021mb 44f 46f
6:06pm 10 13 mph 1021mb 44f 46f
6:00pm 11 14 mph 1021mb 44f 46f
5:54pm 14 15 mph 1021mb 44f 46f
5:48pm 10 11 mph 1020.9mb 44f 46f
5:42pm 10 13 mph 1021mb 44f 47f
5:36pm 10 14 mph 1021mb 44f 47f
5:30pm 10 13 mph 1021.1mb 44f 47f
5:24pm 10 14 mph 1021.1mb 44f 47f
5:18pm 10 14 mph 1021.2mb 44f 47f
5:12pm 10
mph
1021.1mb 44f 47f
5:06pm 9 10 mph 1021.1mb 44f 47f
5:00pm 8 10 mph 1021mb 44f 48f
4:54pm 9 10 mph 1020.9mb 44f 48f
4:48pm 9 10 mph 1020.8mb 44f 48f
4:42pm 8 9 mph 1020.6mb 44f 48f
4:36pm 9 10 mph 1020.5mb 44f 49f
4:30pm 9 11 mph 1020.6mb 44f 49f
4:24pm 10 13 mph 1020.5mb 44f 49f
4:18pm 11 13 mph 1020.5mb 44f 50f
4:12pm 6 7 mph 1020.5mb 44f 50f
4:06pm 7 8 mph 1020.5mb 44f 51f
4:00pm 8 9 mph 1020.5mb 44f 51f
3:54pm 8 10 mph 1020.6mb 44f 51f
3:48pm 7 8 mph 1020.7mb 44f 51f
3:42pm 7 8 mph 1020.6mb 44f 51f
3:36pm 6 8 mph 1020.6mb 44f 52f
3:30pm 8 9 mph 1020.7mb 44f 51f
3:24pm 9 10 mph 1020.7mb 44f 52f
3:18pm 10 11 mph 1020.7mb 44f 52f
3:12pm 8 14 mph 1020.7mb 44f 51f
3:06pm 11 14 mph 1020.8mb 44f 52f
3:00pm 10 14 mph 1020.8mb 44f 51f
2:54pm 13 17 mph 1020.7mb 44f 51f
2:48pm 13 15 mph 1020.8mb 44f 51f
2:42pm 8 9 mph 1020.8mb 44f 51f
2:36pm 7 10 mph 1020.7mb 44f 51f
2:30pm 10 11 mph 1020.7mb 44f 51f
2:24pm 7 9 mph 1020.6mb 44f 50f
2:18pm 8 10 mph 1020.6mb 44f 50f
2:12pm 8 10 mph 1020.6mb 44f 51f
2:06pm 10 11 mph 1020.6mb 44f 51f
2:00pm 9 10 mph 1020.6mb 44f 50f
1:54pm 9 11 mph 1020.6mb 44f 50f
1:48pm 7 9 mph 1020.6mb 44f 50f
1:42pm 9 10 mph 1020.7mb 44f 51f
1:36pm 9 11 mph 1020.8mb 44f 50f
1:30pm 11 13 mph 1020.9mb 44f 51f
1:24pm 9 10 mph 1020.9mb 44f 49f
1:18pm 10 11 mph 1020.9mb 44f 50f
1:12pm 9 10 mph 1020.9mb 44f 50f
1:06pm 10 11 mph 1021.2mb 44f 50f
1:00pm 8 10 mph 1021mb 44f 49f
12:54pm 9 10 mph 1021.2mb 44f 50f
12:48pm 7 8 mph 1021.2mb 44f 50f
12:42pm 8 9 mph 1021.3mb 44f 50f
12:36pm 7 8 mph 1021.5mb 44f 50f
12:30pm 8
mph
1021.6mb 44f 50f
12:24pm 7 9 mph 1021.6mb 44f 50f
12:18pm 8 9 mph 1021.6mb 44f 51f
12:12pm 8 9 mph 1021.7mb 44f 50f
12:06pm 7 8 mph 1021.8mb 44f 50f
12:00pm 7 8 mph 1021.8mb 44f 50f
11:54am 7 10 mph 1021.9mb 44f 51f
11:48am  -  mph - - 49f
11:42am  -  mph - - 49f
11:36am  -  mph - - 50f
11:30am 6 7 mph 1022mb 44f 51f
11:24am 6 7 mph 1022.2mb 44f 50f
11:18am 7
mph
1022.3mb 44f 49f
11:12am 6
mph
1022.4mb 44f 49f
11:06am 3 5 mph 1022.5mb 44f 48f
11:00am 3 5 mph 1022.7mb 44f 49f
10:54am 5 6 mph 1022.9mb 44f 49f
10:48am 5 6 mph 1023mb 44f 48f
10:42am 6
mph
1023.1mb 44f 48f
10:36am 6
mph
1023.2mb 44f 48f
10:30am 6 7 mph 1023.3mb 44f 47f
10:24am 6
mph
1023.3mb 44f 47f
10:18am 6 7 mph 1023.4mb 44f 47f
10:12am 6 7 mph 1023.5mb 44f 47f
10:06am 6 7 mph 1023.6mb 44f 47f
10:00am 7 8 mph 1023.7mb 44f 46f
9:54am 8
mph
1023.7mb 44f 46f
9:48am 8
mph
1023.7mb 44f 46f
9:42am 7 9 mph 1023.7mb 44f 45f
9:36am 8 9 mph 1023.7mb 44f 45f
9:30am 7 8 mph 1023.6mb 44f 44f
9:24am 8
mph
1023.6mb 44f 44f
9:18am 7
mph
1023.5mb 44f 44f
9:12am 7
mph
1023.4mb 44f 44f
9:06am 7 8 mph 1023.5mb 44f 43f
9:00am 7 8 mph 1023.5mb 44f 43f
8:54am 7 8 mph 1023.3mb 44f 42f
8:48am 6 7 mph 1023.3mb 44f 42f
8:42am 6 7 mph 1023.3mb 44f 42f
8:36am 7 8 mph 1023.3mb 44f 41f
8:30am 7 9 mph 1023.2mb 44f 40f
8:24am 8 9 mph 1023.2mb 44f 40f
8:18am 7 8 mph 1023.2mb 44f 40f
8:12am 7
mph
1023.1mb 44f 40f
8:06am 6 7 mph 1023.2mb 44f 40f
8:00am 6
mph
1023.2mb 44f 39f
7:54am 6 7 mph 1023.1mb 44f 38f
7:48am 6
mph
1023.1mb 44f 38f
7:42am 5 6 mph 1023mb 44f 38f
7:36am 5 6 mph 1023mb 44f 37f
7:30am 6
mph
1022.9mb 44f 37f
7:24am 6
mph
1023mb 44f 38f
7:18am 5 6 mph 1022.9mb 44f 38f
7:12am 5 6 mph 1022.9mb 44f 38f
7:06am 5 6 mph 1022.7mb 44f 38f
7:00am 5 6 mph 1022.6mb 44f 38f
6:54am  -  mph - 44f -
6:48am 5
mph
1022.4mb 44f 39f
6:42am 2 5 mph 1022.3mb 44f 40f
6:36am 1 2 mph 1022.3mb 44f 39f
6:30am 1 2 mph 1022.1mb 44f 39f
6:24am  -  mph 1022mb 44f 38f
6:18am  -  mph - 44f -
6:12am  -  2 mph 1022mb 44f 38f
6:06am 2 3 mph 1022mb 44f 39f
6:00am 2 3 mph 1022mb 44f 39f
5:54am 2
mph
1021.8mb 44f 38f
5:48am 1 2 mph 1021.7mb 44f 39f
5:42am 2
mph
1021.6mb 44f 39f
5:36am 2
mph
1021.6mb 44f 39f
5:30am 1
mph
1021.5mb 44f 39f
5:24am 2 3 mph 1021.4mb 44f 39f
5:18am 1 2 mph 1021.4mb 44f 39f
5:12am  -  1 mph 1021.5mb 44f 39f
5:06am 1 3 mph 1021.4mb 44f 39f
5:00am 3 5 mph 1021.5mb 44f 39f
4:54am 2 5 mph 1021.4mb 44f 39f
4:48am 5 6 mph 1021.7mb 44f 39f
4:42am 6
mph
1021.6mb 44f 39f
4:36am 5 6 mph 1021.6mb 44f 39f
4:30am 3
mph
1021.4mb 44f 40f
4:24am 3 5 mph 1021.2mb 44f 40f
4:18am  -  mph - 44f -
4:12am 3 5 mph 1021mb 44f 40f
4:06am 3 5 mph 1021.1mb 44f 40f
4:00am  -  1 mph 1020.9mb 44f 40f
3:54am 1 3 mph 1020.9mb 44f 40f
3:48am 3 5 mph 1020.9mb 44f 40f
3:42am  -  2 mph 1020.9mb 44f 40f
3:36am  -  2 mph 1020.8mb 44f 40f
3:30am 2 3 mph 1021mb 44f 40f
3:24am 2
mph
1021.2mb 44f 40f
3:12am 2 3 mph 1021.2mb 44f 40f
3:06am 2 3 mph 1021.5mb 44f 40f
3:00am 3 5 mph 1021.5mb 44f 40f
2:54am 2 5 mph 1021.5mb 44f 40f
2:48am 2 3 mph 1021.4mb 44f 40f
2:42am 3
mph
1021.5mb 44f 40f
2:36am 1 2 mph 1021.5mb 44f 40f
2:30am 1 2 mph 1021.4mb 44f 40f
2:24am 2 3 mph 1021.3mb 44f 40f
2:18am 2
mph
1021.3mb 44f 39f
2:12am 1 3 mph 1021.2mb 44f 39f
2:06am 3
mph
1021.1mb 44f 39f
2:00am 2 3 mph 1021.1mb 44f 39f
1:54am 3 5 mph 1020.9mb 44f 39f
1:48am 5 6 mph 1020.9mb 44f 39f
1:42am 5 6 mph 1021mb 44f 39f
1:36am 5 6 mph 1020.9mb 44f 39f
1:30am 6
mph
1020.7mb 44f 39f
1:24am 5 6 mph 1020.5mb 44f 39f
1:18am  -  mph - 44f -
1:12am 5 7 mph 1020.4mb 44f 40f
1:06am 7
mph
1020.3mb 44f 40f
1:00am 7
mph
1020.3mb 44f 40f
12:54am 6 8 mph 1020.4mb 44f 40f
12:48am 6 8 mph 1020.4mb 44f 40f
12:42am 6 8 mph 1020.3mb 44f 40f
12:36am 7 9 mph 1020.5mb 44f 40f
12:30am 7 9 mph 1020.6mb 44f 41f
12:24am 8 9 mph 1020.6mb 44f 41f
12:18am 7 8 mph 1020.5mb 44f 41f
12:12am 7 9 mph 1020.6mb 44f 41f
12:06am 7 9 mph 1020.8mb 44f 41f
12:00am 7 8 mph 1021mb 44f 41f
Fri 12/26 11:54pm 7 8 mph 1021mb 44f 41f
11:48pm 7 8 mph 1021.1mb 44f 41f
11:42pm 7 8 mph 1021.1mb 44f 41f
11:36pm 7 8 mph 1021.3mb 44f 41f
11:30pm 7
mph
1021.4mb 44f 41f
11:24pm 6 7 mph 1021.5mb 44f 41f
11:18pm 7 8 mph 1021.6mb 44f 41f
11:12pm 7
mph
1021.7mb 44f 41f
11:06pm 6 7 mph 1021.7mb 44f 41f
10:54pm 5 6 mph 1021.7mb 44f 40f
10:48pm 5
mph
1021.8mb 44f 40f
10:42pm 5
mph
1021.9mb 44f 40f
10:36pm 5 6 mph 1021.9mb 44f 40f
10:30pm 5 6 mph 1021.9mb 44f 40f
10:24pm 5 6 mph 1021.9mb 44f 40f
10:18pm 5 6 mph 1021.9mb 44f 40f
10:12pm 5 6 mph 1021.8mb 44f 40f
10:06pm 6 7 mph 1021.8mb 44f 40f
10:00pm 6 8 mph 1021.8mb 44f 40f
9:54pm 7
mph
1021.7mb 44f 40f
9:48pm 6 7 mph 1021.8mb 44f 40f
9:42pm 6 7 mph 1021.7mb 44f 40f
9:30pm 6 8 mph 1021.6mb 44f 41f
9:24pm 8 9 mph 1021.8mb 44f 41f
9:18pm 7 8 mph 1021.9mb 44f 41f
9:12pm 7 8 mph 1021.8mb 44f 41f
9:06pm 7 8 mph 1021.7mb 44f 41f
9:00pm 6 7 mph 1021.7mb 44f 41f
8:54pm 7 8 mph 1021.8mb 44f 41f
8:48pm 7 8 mph - 44f 41f
8:42pm 7 8 mph - 44f 41f
8:36pm 7 8 mph - 44f 41f
8:30pm 7
mph
1021.7mb 44f 41f
8:24pm 6 8 mph 1021.8mb 44f 41f
8:18pm 7 8 mph 1021.7mb 44f 41f
8:12pm 6 7 mph 1021.7mb 44f 41f
8:06pm 6 7 mph 1021.7mb 44f 41f
8:00pm 7 8 mph 1021.7mb 44f 41f
7:54pm 7 8 mph 1021.6mb 44f 41f
7:48pm 7 8 mph 1021.5mb 44f 42f
7:42pm 7 8 mph 1021.6mb 44f 42f
7:36pm 7
mph
1021.5mb 44f 42f
7:30pm 7
mph
1021.6mb 44f 42f
7:24pm 6
mph
1021.7mb 44f 42f
7:18pm 6 7 mph 1021.7mb 44f 43f
7:12pm 6 7 mph 1021.7mb 44f 43f
7:06pm 6 7 mph 1021.7mb 44f 43f
7:00pm 6
mph
1021.7mb 44f 43f
6:54pm 5 6 mph 1021.8mb 44f 44f
6:48pm 5 6 mph 1021.7mb 44f 43f
6:42pm 5
mph
1021.8mb 44f 43f
6:36pm 5 6 mph 1021.8mb 44f 43f
6:30pm 5
mph
1021.8mb 44f 43f
6:24pm 3 5 mph 1021.7mb 45f 43f
6:18pm 5 6 mph 1021.6mb 45f 43f
6:12pm 5 6 mph 1021.5mb 45f 43f
6:06pm 5 6 mph 1021.4mb 45f 44f
6:00pm 6
mph
1021.3mb 45f 44f
5:54pm 6
mph
1021.1mb 45f 44f
5:48pm 5 6 mph 1021.1mb 45f 44f
5:42pm 6
mph
1020.9mb 45f 44f
5:36pm 5 6 mph 1020.9mb 45f 45f
5:30pm 5
mph
1020.8mb 45f 45f
5:24pm 5 6 mph 1020.8mb 45f 45f
5:18pm 6
mph
1020.7mb 45f 46f
5:12pm 6 7 mph 1020.7mb 45f 46f
5:06pm 6 7 mph 1020.7mb 45f 46f
5:00pm 7 8 mph 1020.7mb 45f 47f
4:54pm 7 10 mph 1020.7mb 45f 47f
4:48pm 8 9 mph 1020.6mb 45f 47f
4:42pm 8 9 mph 1020.4mb 45f 47f
4:36pm 7 9 mph 1020.2mb 45f 47f
4:30pm 9 10 mph 1020.1mb 45f 48f
4:24pm 6 7 mph 1020.2mb 45f 48f
4:18pm 6 7 mph 1020.2mb 45f 47f
4:12pm 5 7 mph 1020.1mb 45f 48f
4:06pm 6 7 mph 1020mb 45f 49f
4:00pm 6 7 mph 1020.1mb 45f 49f
3:54pm 6 9 mph 1020.2mb 45f 49f
3:48pm  -  mph 1020.2mb 45f 49f
3:42pm  -  mph 1020.2mb 45f 49f
3:36pm  -  mph 1020.3mb 45f 49f
3:30pm 8 10 mph 1020.3mb 45f 49f
3:24pm 8 9 mph 1020.3mb 45f 49f
3:18pm 7 11 mph 1020.3mb 45f 49f
3:12pm 9 14 mph 1020.3mb 45f 49f
3:06pm 7 10 mph 1020.2mb 45f 49f
3:00pm 11 14 mph 1020.1mb 45f 49f
2:54pm 8 11 mph 1020mb 45f 49f
2:48pm 9 15 mph 1020mb 45f 49f
2:42pm 13 14 mph 1019.9mb 45f 49f
2:36pm 9 10 mph 1019.9mb 45f 49f
2:30pm 7 10 mph 1019.8mb 45f 49f
2:24pm 8 11 mph 1019.7mb 44f 48f
2:18pm 10 14 mph 1019.7mb 44f 48f
2:12pm 7 13 mph 1019.8mb 44f 49f
2:06pm 10 14 mph 1019.8mb 44f 49f
2:00pm 8 13 mph 1019.9mb 44f 49f
1:54pm 10 15 mph 1019.9mb 44f 49f
1:48pm 13 16 mph 1019.9mb 44f 48f
1:42pm 9 15 mph 1019.9mb 44f 48f
1:36pm 14 17 mph 1020mb 44f 48f
1:30pm 13 17 mph 1020.1mb 44f 48f
1:24pm 10 14 mph 1020.2mb 44f 48f
1:18pm 14 21 mph 1020.4mb 44f 48f
1:12pm 10 17 mph 1020.4mb 44f 48f
1:06pm 14 20 mph 1020.4mb 44f 48f
1:00pm 11 15 mph 1020.4mb 44f 48f
12:54pm 14 18 mph 1020.3mb 44f 48f
12:42pm 10 14 mph 1020.3mb 44f 48f
12:36pm 10 17 mph 1020.2mb 44f 48f
12:30pm 9 17 mph 1020.1mb 44f 48f
12:24pm 11 17 mph 1020.2mb 44f 47f
12:18pm 14 17 mph 1020.4mb 44f 47f
12:12pm 13 18 mph 1020.5mb 44f 47f
12:06pm 15 20 mph 1020.6mb 44f 47f
12:00pm 13 21 mph 1020.7mb 44f 47f
11:54am 13 20 mph 1020.8mb 44f 47f
11:48am 15 18 mph 1020.8mb 44f 47f
11:42am 15 21 mph 1021mb 44f 47f
11:36am 13 21 mph 1021.1mb 44f 47f
11:30am 14 18 mph 1021mb 44f 47f
11:24am 13 21 mph 1020.9mb 44f 47f
11:18am 10 15 mph 1021mb 44f 47f
11:12am 10 14 mph 1020.9mb 44f 46f
11:06am 9 16 mph 1021.1mb 44f 47f
11:00am 14 17 mph 1021.3mb 44f 46f
10:54am 11 21 mph 1021.4mb 44f 46f
10:48am 14 18 mph 1021.6mb 44f 46f
10:42am 11 16 mph 1021.7mb 44f 46f
10:36am 11 17 mph 1021.9mb 44f 46f
10:30am 14 16 mph 1021.9mb 44f 45f
10:24am 14 18 mph 1022mb 44f 46f
10:18am 13 18 mph 1022.2mb 44f 45f
10:12am 11 16 mph 1022.2mb 44f 45f
10:06am 10 21 mph 1022.2mb 44f 45f
10:00am 13 15 mph 1022.2mb 44f 45f
9:54am 9 11 mph 1022.1mb 44f 45f
9:48am 8 11 mph 1022.2mb 44f 44f
9:42am 8 10 mph 1022.2mb 44f 44f
9:36am 9 13 mph 1022.3mb 44f 44f
9:30am 9 13 mph 1022.3mb 44f 43f
9:24am 9 13 mph 1022.3mb 44f 43f
9:18am 9 11 mph 1022.3mb 44f 42f
9:12am 9 11 mph 1022.1mb 44f 42f
9:06am 10 14 mph 1021.9mb 44f 42f
9:00am 10 13 mph 1021.9mb 44f 42f
8:54am 11 14 mph 1022.1mb 44f 41f
8:48am 10 13 mph 1022mb 44f 41f
8:42am 10 13 mph 1021.9mb 44f 41f
8:36am 10 13 mph 1021.8mb 44f 40f
8:30am 10 14 mph 1021.8mb 44f 40f
8:24am 11 14 mph 1021.9mb 44f 40f
8:18am 13 14 mph 1022mb 44f 40f
8:12am 11 14 mph 1021.9mb 44f 40f
8:06am 11 14 mph 1021.7mb 44f 40f
8:00am 11 13 mph 1021.5mb 44f 40f
7:54am 10 14 mph 1021.4mb 44f 39f
7:48am 10 11 mph 1021.6mb 44f 39f
7:42am 10 13 mph 1021.6mb 44f 39f
7:36am 10 13 mph 1021.5mb 44f 39f
7:30am 10 11 mph 1021.4mb 44f 38f
7:24am 10 13 mph 1021.1mb 44f 38f
7:18am 10 11 mph 1021mb 44f 38f
7:12am 10 13 mph 1020.9mb 44f 38f
7:06am 11 13 mph 1021mb 44f 38f
7:00am 10 11 mph 1020.9mb 44f 38f
6:54am 11 13 mph 1020.8mb 44f 38f
6:48am 10 11 mph 1020.8mb 44f 38f
6:42am 9 10 mph 1020.7mb 44f 38f
6:36am 9 10 mph 1020.5mb 44f 38f
6:30am 9 10 mph 1020.4mb 44f 38f
6:24am 10
mph
1020.2mb 44f 38f
6:18am 9 10 mph 1020.2mb 44f 38f
6:12am 9 10 mph 1020.2mb 44f 39f
6:06am 7 8 mph 1020.1mb 44f 38f
6:00am 8 9 mph 1019.8mb 44f 38f
5:54am 8 9 mph 1019.7mb 44f 38f
5:48am 7 9 mph 1019.7mb 44f 38f
5:42am 7 8 mph 1019.6mb 44f 38f
5:36am 7 9 mph 1019.5mb 44f 38f
5:24am 8 9 mph 1019.6mb 44f 39f
5:18am 8 9 mph 1019.5mb 44f 38f
5:12am 8
mph
1019.4mb 44f 38f
5:06am 7 8 mph 1019.4mb 44f 39f
5:00am 8 9 mph 1019.4mb 44f 39f
4:54am 8 9 mph 1019.3mb 44f 39f
4:48am 8 10 mph 1019.3mb 44f 39f
4:42am 10 11 mph 1019.4mb 44f 39f
4:36am 10 11 mph 1019.3mb 44f 39f
4:30am 10 11 mph 1019.3mb 44f 39f
4:24am 9 11 mph 1019.2mb 44f 39f
4:18am 10 11 mph 1019.3mb 44f 39f
4:12am 9 11 mph 1019.2mb 44f 39f
4:06am 8 11 mph 1018.8mb 44f 40f
4:00am 10 11 mph 1018.7mb 44f 40f
3:54am 10 11 mph 1018.6mb 44f 40f
3:48am 10 11 mph 1018.5mb 44f 40f
3:42am 9 10 mph 1018.5mb 44f 40f
3:36am 8 10 mph 1018.5mb 44f 40f
3:30am 8 10 mph 1018.4mb 44f 41f
3:24am 9 11 mph 1018.5mb 44f 41f
3:18am 8 9 mph 1018.4mb 44f 40f
3:12am 8 9 mph 1018.4mb 44f 40f
3:06am 8 10 mph 1018.3mb 44f 41f
3:00am 8 9 mph 1018.3mb 44f 41f
2:54am 9 10 mph 1018.2mb 44f 41f
2:48am 8 10 mph 1018.3mb 44f 41f
2:42am 8 10 mph 1018.2mb 44f 41f
2:36am 9 10 mph 1018.2mb 44f 41f
2:30am 9 10 mph 1018.2mb 44f 42f
2:24am 8 10 mph 1018.1mb 44f 42f
2:18am 9 10 mph 1018.1mb 44f 42f
2:12am 8 10 mph 1018.1mb 44f 42f
2:06am 9 10 mph 1018.2mb 44f 42f
2:00am 7 8 mph 1018.2mb 44f 41f
1:54am 7 9 mph 1018.1mb 44f 41f
1:48am 8 10 mph 1018mb 44f 42f
1:42am 9 11 mph 1017.8mb 44f 42f
1:36am 9 10 mph 1017.7mb 44f 42f
1:30am 8 10 mph 1017.6mb 44f 41f
1:24am 8 9 mph 1017.6mb 44f 41f
1:18am 7 8 mph 1017.5mb 44f 41f
1:12am 7 9 mph 1017.3mb 44f 41f
1:06am 8 9 mph 1017.2mb 44f 40f
1:00am 8
mph
1017mb 44f 40f
12:54am 7 8 mph 1016.8mb 44f 41f
12:48am 7 9 mph 1016.7mb 44f 41f
12:42am 7 8 mph 1016.7mb 44f 41f
12:36am 8 9 mph 1016.6mb 44f 41f
12:30am 8 9 mph 1016.6mb 44f 41f
12:24am 8 9 mph 1016.4mb 44f 41f
12:18am 8 9 mph 1016.3mb 44f 42f
12:12am 8 10 mph 1016.3mb 44f 42f
12:06am 9 10 mph 1016.2mb 44f 42f
12:00am 9 10 mph 1016.2mb 44f 43f
Thu 12/25 11:54pm 9 10 mph 1016.1mb 44f 43f
11:48pm 9 10 mph 1016mb 44f 42f
11:42pm 8 9 mph 1016mb 44f 42f
11:36pm 8
mph
1016mb 44f 43f
11:30pm 7 9 mph 1016mb 44f 43f
11:24pm 7 8 mph 1015.9mb 44f 43f
11:18pm 6 7 mph 1015.7mb 44f 43f
11:12pm 6
mph
1015.6mb 44f 43f
11:06pm 5 6 mph 1015.5mb 44f 43f
11:00pm 5 6 mph 1015.5mb 44f 43f
10:54pm 6 7 mph 1015.6mb 44f 43f
10:48pm 6 8 mph 1015.6mb 44f 43f
10:42pm 7 8 mph 1015.6mb 44f 43f
10:36pm 7 8 mph 1015.5mb 44f 43f
10:30pm 7 8 mph 1015.5mb 44f 43f
10:24pm 7 8 mph 1015.3mb 44f 43f
10:18pm 7
mph
1015.1mb 44f 44f
10:12pm 6 7 mph 1015.1mb 44f 44f
10:06pm 6 7 mph 1015.1mb 44f 44f
10:00pm 6 7 mph 1015mb 44f 44f
9:54pm 6
mph
1015mb 44f 44f
9:48pm 3 6 mph 1015mb 44f 43f
9:42pm 5 7 mph 1014.8mb 44f 44f
9:36pm 7
mph
1014.8mb 44f 44f
9:30pm 5 7 mph 1014.6mb 44f 44f
9:24pm 7 8 mph 1014.4mb 44f 44f
9:18pm 6 7 mph 1014.3mb 44f 44f
9:12pm 7 8 mph 1014.1mb 44f 44f
9:06pm 7 8 mph 1014.1mb 45f 44f
9:00pm 6 7 mph 1014.2mb 45f 44f
8:54pm 6 7 mph 1014mb 45f 45f
8:48pm 6 7 mph 1013.8mb 45f 45f
8:42pm 6 7 mph 1013.9mb 45f 45f
8:36pm 6 8 mph 1013.8mb 45f 45f
8:30pm 8 10 mph 1013.8mb 45f 45f
8:24pm 9 13 mph 1013.7mb 45f 46f
8:18pm 8 13 mph 1013.5mb 45f 45f
8:12pm 9 13 mph 1013.5mb 45f 46f
8:06pm 9 10 mph 1013.4mb 45f 46f
8:00pm 9 10 mph 1013.2mb 44f 46f
7:54pm 8 9 mph 1013.1mb 44f 46f
7:48pm 8
mph
1013mb 44f 46f
7:42pm 8
mph
1012.7mb 44f 46f
7:36pm 8 9 mph 1012.6mb 44f 46f
7:30pm 8 9 mph 1012.4mb 44f 46f
7:24pm 8 9 mph 1012.3mb 44f 46f
7:18pm 8 9 mph 1012.2mb 44f 46f
7:12pm 9 10 mph 1012.1mb 44f 47f
7:06pm 9 11 mph 1012mb 44f 47f
7:00pm 8 10 mph 1011.8mb 44f 47f
6:54pm  -  mph - 44f -
6:48pm 8 11 mph 1011.6mb 44f 47f
6:42pm 9 11 mph 1011.6mb 44f 47f
6:36pm 9 11 mph 1011.4mb 44f 47f
6:30pm 10 14 mph 1011.3mb 44f 48f
6:24pm 8 13 mph 1011.2mb 44f 48f
6:18pm 11 16 mph 1011mb 44f 49f
6:12pm 13 17 mph 1010.9mb 45f 49f
6:06pm 11 17 mph 1010.8mb 45f 48f
6:00pm 13 17 mph 1010.5mb 45f 48f
5:54pm 15 18 mph 1010.3mb 45f 49f
5:48pm 14 16 mph 1010.2mb 45f 48f
5:42pm 11 14 mph 1010.3mb 45f 48f
5:36pm 13 14 mph 1010.2mb 45f 49f
5:30pm 10 14 mph 1010.2mb 45f 49f
5:24pm 8 16 mph 1010mb 45f 49f
5:18pm 10 14 mph 1009.9mb 45f 49f
5:12pm 9 11 mph 1009.8mb 45f 49f
5:06pm 10 14 mph 1009.8mb 45f 49f
5:00pm 9 15 mph 1009.6mb 45f 49f
4:54pm 11 16 mph 1009.3mb 45f 50f
4:48pm 9 16 mph 1009.2mb 45f 49f
4:42pm 11 18 mph 1009mb 45f 50f
4:36pm 15 20 mph 1008.9mb 45f 50f
4:30pm 9 14 mph 1008.8mb 45f 50f
4:24pm 10 18 mph 1008.8mb 45f 50f
4:18pm 11 18 mph 1008.6mb 45f 50f
4:12pm 10 15 mph 1008.5mb 45f 50f
4:06pm 10 24 mph 1008.3mb 45f 50f
4:00pm 18 25 mph 1008.1mb 45f 51f
3:54pm 18 26 mph 1007.9mb 45f 51f
3:48pm 18 28 mph 1007.8mb 45f 51f
3:42pm 17 22 mph 1007.7mb 45f 51f
3:36pm 11 22 mph 1007.6mb 45f 51f
3:30pm 15 21 mph 1007.3mb 45f 51f
3:24pm 10 18 mph 1007.2mb 45f 51f
3:18pm 14 18 mph 1007.1mb 45f 51f
3:12pm 11 21 mph 1006.9mb 45f 51f
3:06pm 14 21 mph 1006.7mb 45f 51f
3:00pm 13 24 mph 1006.5mb 45f 51f
2:54pm 17 22 mph 1006.3mb 45f 50f
2:48pm 17 29 mph 1006.3mb 45f 50f
2:42pm 15 20 mph 1006.1mb 45f 51f
2:36pm 13 18 mph 1005.5mb 45f 52f
2:30pm 13 22 mph 1005.2mb 45f 52f
2:24pm 13 20 mph 1005mb 45f 52f
2:18pm 18 22 mph 1004.8mb 45f 52f
2:12pm 15 22 mph 1004.8mb 45f 52f
2:06pm 17 23 mph 1004.7mb 45f 52f
2:00pm 11 15 mph 1004.5mb 45f 53f
1:54pm 11 16 mph 1004.2mb 45f 53f
1:48pm 15 18 mph 1004.1mb 44f 53f
1:42pm 11 15 mph 1003.9mb 44f 53f
1:36pm 8 16 mph 1003.9mb 44f 53f
1:30pm 13 18 mph 1003.9mb 44f 53f
1:24pm 14 18 mph 1003.9mb 44f 53f
1:18pm 14 23 mph 1003.8mb 44f 53f
1:12pm 10 21 mph 1003.7mb 44f 53f
1:06pm 11 15 mph 1003.6mb 44f 53f
1:00pm 11 17 mph 1003.4mb 44f 53f
12:54pm 15 20 mph 1003.1mb 44f 53f
12:48pm 16 20 mph 1002.9mb 44f 53f
12:42pm 14 18 mph 1002.7mb 44f 53f
12:36pm 11 16 mph 1002.7mb 44f 53f
12:30pm 11 17 mph 1002.7mb 44f 53f
12:24pm 11 16 mph 1002.6mb 44f 53f
12:18pm 7 15 mph 1002.7mb 44f 53f
12:12pm 8 14 mph 1002.7mb 44f 53f
12:06pm 11 15 mph 1002.5mb 44f 52f
12:00pm 11 21 mph 1002.5mb 44f 52f
11:54am 9 15 mph 1002.7mb 44f 52f
11:48am 15 17 mph 1002.6mb 45f 52f
11:42am 10 16 mph 1002.4mb 45f 52f
11:36am 11 18 mph 1002.4mb 45f 52f
11:30am 10 16 mph 1002.4mb 45f 52f
11:24am 14 20 mph 1002.4mb 45f 52f
11:18am  -  mph - 45f -
11:12am  -  mph - 45f -
11:06am 15 23 mph 1002.6mb 45f 52f
11:00am 14 22 mph 1002.7mb 45f 52f
10:54am 20 24 mph 1002.6mb 45f 53f
10:48am 20 28 mph 1002.6mb 45f 53f
10:42am 17 24 mph 1002.5mb 44f 53f
10:36am 17 22 mph 1002.4mb 45f 54f
10:30am 17 29 mph 1001.8mb 45f 54f
10:24am 21 32 mph 1002mb 45f 54f
10:18am 22 33 mph 1002.1mb 45f 55f
10:12am 25 31 mph 1001.9mb 45f 55f
10:06am 13 15 mph 1001.8mb 45f 54f
10:00am 11 15 mph 1001.4mb 45f 54f
9:54am 14 16 mph 1001.5mb 45f 54f
9:48am 14 18 mph 1001mb 45f 54f
9:42am 17 24 mph 1001mb 45f 55f
9:36am 10 18 mph 1001.2mb 45f 55f
9:30am 15 18 mph 1001.8mb 45f 54f
9:24am 15 20 mph 1001.6mb 45f 53f
9:18am 16 18 mph 1001.4mb 45f 53f
9:12am 16 18 mph 1000.9mb 45f 53f
9:06am 16 18 mph 1000.7mb 45f 53f
9:00am 15 22 mph 1000.5mb 45f 53f
8:54am 16 20 mph 1000.8mb 45f 54f
8:48am 16 18 mph 1000.5mb 45f 54f
8:42am 15 20 mph 1000.6mb 45f 53f
8:36am 15 17 mph 1000.5mb 45f 53f
8:30am 14 22 mph 1000.3mb 45f 53f
8:24am 18 22 mph 1000.4mb 45f 55f
8:18am 17 20 mph 1000.1mb 45f 55f
8:12am 17 23 mph 1000.2mb 45f 55f
8:06am 15 17 mph 1000.1mb 45f 55f
8:00am 14 16 mph 999.9mb 45f 55f
7:54am 14 15 mph 999.9mb 45f 55f
7:48am 15 22 mph 999.9mb 45f 55f
7:42am 14 17 mph 1000.1mb 45f 55f
7:36am 16 18 mph 1000.3mb 45f 56f
7:30am 16 18 mph 1000.5mb 45f 55f
7:24am 16 21 mph 1000.4mb 45f 55f
7:18am 16 17 mph 1000.6mb 45f 55f
7:12am 15 18 mph 1000.6mb 45f 55f
7:06am 14 17 mph 1000.3mb 45f 55f
7:00am 15 18 mph 1000.2mb 45f 56f
6:54am 15 18 mph 1000.4mb 45f 56f
6:48am 15 17 mph 1000.5mb 45f 56f
6:42am 14 20 mph 1000.5mb 45f 55f
6:36am 15 16 mph 1000.5mb 45f 56f
6:30am 16 20 mph 1000.6mb 45f 55f
6:24am 17 20 mph 1000.8mb 45f 56f
6:18am 17 20 mph 1000.5mb 45f 55f
6:12am 16 22 mph 1000.3mb 45f 55f
6:06am 16 20 mph 1000.2mb 45f 55f
6:00am 17 23 mph 999.8mb 45f 55f
5:54am 21 23 mph 999.9mb 45f 55f
5:48am  -  mph - 45f -
5:36am 18 26 mph 999.4mb 45f 56f
5:30am 18 24 mph 999.6mb 45f 56f
5:24am 16 20 mph 999.7mb 45f 55f
5:18am 17 21 mph 999.6mb 45f 54f
5:12am 14 17 mph 999.5mb 45f 52f
5:06am 15 18 mph 999.7mb 45f 54f
5:00am 18 25 mph 999.5mb 45f 54f
4:54am 22 25 mph 999.3mb 45f 57f
4:48am 18 23 mph 999.4mb 45f 57f
4:42am 20 28 mph 999.2mb 45f 56f
4:36am 22 26 mph 998.9mb 45f 58f
4:30am 17 22 mph 998.9mb 45f 56f
4:24am 17 22 mph 999.2mb 45f 56f
4:18am 17 22 mph 999.2mb 45f 56f
4:12am 16 20 mph 999.3mb 45f 56f
4:06am 17 22 mph 999.5mb 45f 56f
4:00am 18 22 mph 999.4mb 45f 56f
3:54am 20 22 mph 999.6mb 45f 56f
3:48am 21 25 mph 999.7mb 45f 57f
3:42am 22 28 mph 999.8mb 45f 57f
3:36am 22 28 mph 999.8mb 45f 57f
3:30am 24 30 mph 1000mb 45f 58f
3:24am 25 29 mph 1000.1mb 45f 58f
3:18am 28 32 mph 1000.1mb 45f 58f
3:12am 23 30 mph 1000.2mb 45f 57f
3:06am 28 37 mph 1000.3mb 45f 58f
3:00am 23 32 mph 1000.2mb 45f 58f
2:54am 24 32 mph 1000.3mb 45f 57f
2:48am 24 33 mph 1000.4mb 45f 57f
2:42am 26 31 mph 1000.6mb 45f 57f
2:36am 25 33 mph 1000.5mb 45f 58f
2:30am 21 26 mph 1000.6mb 45f 57f
2:24am 22 26 mph 1000.7mb 45f 58f
2:18am 23 29 mph 1000.7mb 45f 58f
2:12am 22 29 mph 1001.1mb 45f 58f
2:06am 24 31 mph 1000.9mb 45f 57f
2:00am 23 28 mph 1000.8mb 44f 58f
1:54am 21 26 mph 1000.8mb 44f 57f
1:48am 23 26 mph 1000.8mb 44f 58f
1:42am 23 28 mph 1001mb 44f 57f
1:36am 20 25 mph 1001.1mb 44f 57f
1:30am 20 24 mph 1001mb 44f 56f
1:24am 23 26 mph 1001mb 44f 57f
1:18am 25 31 mph 1000.8mb 44f 57f
1:12am 24 31 mph 1000.7mb 44f 57f
1:06am 23 30 mph 1000.5mb 44f 58f
1:00am 25 29 mph 1000.4mb 44f 58f
12:54am 24 32 mph 1000.3mb 44f 58f
12:48am 28 37 mph 1000.5mb 44f 57f
12:42am 29 37 mph 1000.7mb 44f 57f
12:36am 28 34 mph 1000.9mb 44f 58f
12:30am 32 40 mph 1000.6mb 44f 58f
12:24am 31 39 mph 1000.7mb 44f 58f
12:18am 30 37 mph 1000.6mb 44f 58f
12:12am 30 39 mph 1000.6mb 44f 58f
12:06am 28 37 mph 1000.6mb 44f 59f
12:00am 22 31 mph 1001.1mb 44f 59f
Wed 12/24 11:54pm 25 32 mph 1001.2mb 44f 59f
11:48pm 26 40 mph 1001.1mb 44f 59f
11:42pm 26 39 mph 1001mb 44f 59f
11:36pm 24 36 mph 1001.3mb 44f 59f
11:30pm 32 40 mph 1001.5mb 44f 60f
11:24pm  -  mph - 44f -
11:18pm 28 37 mph 1001.4mb 44f 58f
11:12pm 31 37 mph 1001.5mb 44f 59f
11:06pm 32 39 mph 1001.6mb 44f 60f
11:00pm  -  mph - 44f -
10:54pm 22 26 mph 1001.6mb 44f 58f
10:48pm 24 31 mph 1001.6mb 44f 56f
10:42pm 29 33 mph 1001.6mb 44f 58f
10:36pm 23 26 mph 1001.9mb 44f 56f
10:30pm 24 30 mph 1001.9mb 44f 55f
10:24pm 24 29 mph 1002.1mb 44f 55f
10:18pm 24 26 mph 1002.3mb 44f 55f
10:12pm 23 29 mph 1002.4mb 44f 54f
10:06pm 25 28 mph 1002.5mb 44f 55f
10:00pm 26 28 mph 1002.7mb 44f 54f
9:54pm 23 28 mph 1002.9mb 44f 54f
9:48pm 25 30 mph 1003.1mb 44f 55f
9:42pm 26 30 mph 1003mb 44f 55f
9:36pm 23 26 mph 1003mb 44f 54f
9:30pm 23 25 mph 1003.1mb 44f 53f
9:24pm 24 26 mph 1003.1mb 44f 54f
9:18pm 22 24 mph 1003.2mb 44f 53f
9:12pm 22 24 mph 1003.5mb 44f 53f
9:06pm 22 23 mph 1003.7mb 44f 52f
9:00pm 22 24 mph 1003.8mb 44f -
8:54pm 22 24 mph 1003.9mb 44f -
8:48pm 23 25 mph 1004.1mb 43f 53f
8:42pm 21 23 mph 1004.2mb 43f 53f
8:36pm 22 23 mph 1004.4mb 43f 53f
8:30pm 18 22 mph 1004.6mb 43f 53f
8:24pm 20 22 mph 1004.8mb 43f 53f
8:18pm 18 22 mph 1004.9mb 43f 53f
8:12pm 20 22 mph 1005mb 43f 53f
8:06pm 18 22 mph 1005.2mb 43f 54f
8:00pm 18 23 mph 1005.4mb 43f 55f
7:54pm 16 24 mph 1005.6mb 43f 55f
7:48pm 17 22 mph 1005.8mb 43f 55f
7:42pm 16 24 mph 1005.8mb 43f 55f
7:36pm 21 25 mph 1005.7mb 43f 58f
7:30pm 21 24 mph 1005.8mb 43f 58f
7:24pm 17 22 mph 1006mb 43f 57f
7:18pm 15 25 mph 1006.2mb 43f 53f
7:12pm 24 29 mph 1006mb 43f 58f
7:06pm 26 29 mph 1006.1mb 43f 59f
7:00pm 23 28 mph 1006.1mb 43f 59f
6:54pm 21 29 mph 1006.2mb 43f 58f
6:48pm 17 24 mph 1006.4mb 43f 57f
6:42pm 7 10 mph 1006.6mb 43f 55f
6:36pm 1 3 mph 1006.7mb 43f 53f
6:30pm  -  2 mph 1006.9mb 43f 52f
6:24pm 1 2 mph 1006.9mb 43f 51f
6:18pm  -  3 mph 1007mb 43f 51f
6:12pm 2 6 mph 1007.1mb 43f 52f
6:06pm 6 8 mph 1007.1mb 43f 53f
6:00pm 3 5 mph 1007.2mb 43f 50f
5:54pm 3 7 mph 1007.2mb 43f 49f
5:48pm 7
mph
1007.2mb 43f 49f
5:42pm 6 7 mph 1007.2mb 43f 49f
5:36pm 6 7 mph 1007.1mb 43f 49f
5:30pm 5 7 mph 1007.1mb 43f 49f
5:24pm 7 8 mph 1007.2mb 43f 49f
5:18pm 6 7 mph 1007.4mb 43f 49f
5:12pm 6 9 mph 1007.5mb 43f 48f
5:06pm 7 9 mph 1007.4mb 43f 48f
5:00pm 7 9 mph 1007.5mb 43f 48f
4:54pm 8 9 mph 1007.5mb 43f 49f
4:48pm 7 9 mph 1007.7mb 43f 48f
4:42pm 7 9 mph 1008mb 43f 48f
4:36pm 7 9 mph 1008mb 43f 48f
4:30pm 7 9 mph 1008.1mb 43f 48f
4:24pm 7 8 mph 1008.2mb 43f 48f
4:18pm 6 7 mph 1008.5mb 43f 48f
4:12pm 7
mph
1008.7mb 43f 48f
4:06pm 6 8 mph 1008.8mb 43f 48f
4:00pm 6 9 mph 1008.8mb 43f 48f
3:54pm 7 9 mph 1008.9mb 43f 48f
3:48pm 6 7 mph 1009.2mb 43f 48f
3:42pm 6 7 mph 1009.4mb 43f 48f
3:36pm 6 7 mph 1009.5mb 43f 47f
3:30pm 7 8 mph 1009.4mb 43f 47f
3:24pm 6 7 mph 1009.5mb 43f 47f
3:18pm 7 8 mph 1009.6mb 43f 47f
3:12pm 6
mph
1009.8mb 43f 47f
3:06pm 5
mph
1010mb 43f 47f
3:00pm 3 6 mph 1010.3mb 43f 47f
2:54pm 5 7 mph 1010.2mb 43f 47f
2:48pm 7
mph
1010.1mb 43f 47f
2:42pm 6 7 mph 1010.3mb 43f 47f
2:36pm 6 7 mph 1010.4mb 43f 47f
2:30pm 5
mph
1010.7mb 43f 47f
2:24pm 3 5 mph 1010.7mb 43f 47f
2:18pm 5 7 mph 1010.8mb 43f 47f
2:12pm 6 8 mph 1010.7mb 43f 47f
2:06pm 7 8 mph 1010.7mb 43f 47f
2:00pm 7 8 mph 1010.8mb 43f 47f
1:54pm 8 9 mph 1010.8mb 43f 47f
1:48pm 7 8 mph 1010.9mb 43f 47f
1:42pm 8 9 mph 1011mb 43f 47f
1:36pm 8 9 mph 1011.2mb 43f 47f
1:30pm 8 9 mph 1011.3mb 43f 47f
1:24pm 7 9 mph 1011.6mb 43f 47f
1:18pm 7 9 mph 1011.8mb 43f 47f
1:12pm 7 9 mph 1011.9mb 43f 47f
1:06pm 7 8 mph 1012mb 43f 47f
1:00pm 7 9 mph 1012.1mb 43f 47f
12:54pm 7 9 mph 1012.2mb 43f 47f
12:48pm 8 9 mph 1012.2mb 43f 47f
12:42pm 7 8 mph 1012.5mb 43f 47f
12:36pm 7 8 mph 1012.7mb 43f 47f
12:30pm 6 8 mph 1012.9mb 43f 47f
12:24pm 7 8 mph 1013mb 43f 47f
12:18pm 7 9 mph 1013.1mb 43f 47f
12:12pm 8 9 mph 1013.1mb 43f 46f
12:06pm 7 8 mph 1013.2mb 43f 46f
12:00pm 8 9 mph 1013.4mb 43f 46f
11:54am 7 8 mph 1013.6mb 43f 46f
11:48am 8 9 mph 1013.8mb 43f 46f
11:42am 8 10 mph 1013.8mb 43f 46f
11:36am 8 10 mph 1014mb 43f 46f
11:30am 9 11 mph 1014.2mb 43f 46f
11:24am 8 10 mph 1014.6mb 43f 46f
11:18am 8 9 mph 1014.6mb 43f 46f
11:12am 8 9 mph 1014.8mb 43f 46f
11:06am 7 9 mph 1014.9mb 43f 46f
11:00am 8 11 mph 1015.1mb 43f 46f
10:54am 7 10 mph 1015.1mb 43f 46f
10:48am 8 10 mph 1015.2mb 43f 46f
10:42am 8 9 mph 1015.3mb 43f 46f
10:36am 9 10 mph 1015.5mb 43f 46f
10:30am 9 13 mph 1015.7mb 43f 46f
10:24am 10 11 mph 1015.6mb 43f 45f
10:18am 9 13 mph 1015.7mb 43f 45f
10:12am 11 14 mph 1015.6mb 43f 45f
10:06am 9 11 mph 1015.7mb 43f 45f
10:00am 9 14 mph 1015.9mb 43f 45f
9:54am 11 13 mph 1015.8mb 43f 45f
9:48am 10 11 mph 1016.1mb 43f 45f
9:42am 9 11 mph 1016.1mb 43f 45f
9:36am 10 13 mph 1016.1mb 43f 44f
9:30am 10 11 mph 1016.1mb 43f 44f
9:24am 9 10 mph 1016.4mb 43f 44f
9:18am 8 9 mph 1016.5mb 43f 44f
9:12am 8 9 mph 1016.7mb 43f 44f
9:06am 8 9 mph 1016.7mb 43f 44f
9:00am 8 10 mph 1016.7mb 43f 44f
8:54am 9 11 mph 1016.6mb 43f 44f
8:48am 8 9 mph 1016.8mb 43f 44f
8:42am 8 10 mph 1016.8mb 43f 44f
8:36am 8 10 mph 1016.8mb 43f 44f
8:30am 8 10 mph 1016.8mb 43f 44f
8:24am 8 10 mph 1016.9mb 43f 44f
8:18am 9 10 mph 1016.8mb 43f 44f
8:12am 8 10 mph 1016.9mb 43f 44f
8:06am 8 10 mph 1017mb 43f 44f
8:00am 8 10 mph 1017.1mb 43f 44f
7:54am 7 10 mph 1017.2mb 43f 44f